createdAt,value
2022-09-21T00:01:52.307Z,52066.52
2022-09-21T00:04:22.113Z,52071.34
2022-09-21T00:06:53.698Z,52080.18
2022-09-21T00:09:25.240Z,52071.74
2022-09-21T00:11:58.360Z,52089.83
2022-09-21T00:14:31.596Z,52087.82
2022-09-21T00:17:03.096Z,52096.26
2022-09-21T00:19:34.746Z,52078.98
2022-09-21T00:22:07.805Z,52080.99
2022-09-21T00:24:39.450Z,52091.44
2022-09-21T00:27:10.896Z,52091.84
2022-09-21T00:29:42.497Z,52097.46
2022-09-21T00:32:12.521Z,52078.98
2022-09-21T00:34:44.191Z,52076.97
2022-09-21T00:37:14.022Z,52091.43
2022-09-21T00:39:45.609Z,52096.66
2022-09-21T00:42:16.363Z,52088.62
2022-09-21T00:44:47.934Z,52101.48
2022-09-21T00:47:21.598Z,52107.51
2022-09-21T00:49:55.007Z,52085.41
2022-09-21T00:52:27.311Z,52099.88
2022-09-21T00:55:03.543Z,52099.88
2022-09-21T00:57:35.853Z,52095.45
2022-09-21T01:00:10.448Z,52093.84
2022-09-21T01:02:42.057Z,52101.08
2022-09-21T01:05:14.070Z,52107.51
2022-09-21T01:07:47.249Z,52111.53
2022-09-21T01:10:19.946Z,52095.86
2022-09-21T01:12:57.821Z,52103.89
2022-09-21T01:15:37.169Z,52106.71
2022-09-21T01:18:15.534Z,52113.14
2022-09-21T01:21:08.003Z,52122.78
2022-09-21T01:23:47.059Z,52126.39
2022-09-21T01:26:25.503Z,52119.96
2022-09-21T01:29:08.855Z,52111.93
2022-09-21T01:31:42.733Z,52117.15
2022-09-21T01:34:17.547Z,52117.55
2022-09-21T01:36:49.409Z,52125.99
2022-09-21T01:39:21.298Z,52121.17
2022-09-21T01:41:51.047Z,52120.37
2022-09-21T01:44:23.503Z,52116.75
2022-09-21T01:46:55.076Z,52119.97
2022-09-21T01:49:29.237Z,52134.43
2022-09-21T01:52:02.512Z,52139.26
2022-09-21T01:54:36.771Z,52126.40
2022-09-21T01:57:12.400Z,52140.46
2022-09-21T01:59:48.077Z,52123.98
2022-09-21T02:02:22.261Z,52129.61
2022-09-21T02:04:53.767Z,52134.43
2022-09-21T02:07:25.336Z,52135.24
2022-09-21T02:09:56.033Z,52149.70
2022-09-21T02:12:27.690Z,52138.05
2022-09-21T02:14:57.494Z,52131.62
2022-09-21T02:17:36.647Z,52139.66
2022-09-21T02:20:18.012Z,52143.68
2022-09-21T02:22:59.158Z,52137.25
2022-09-21T02:25:36.788Z,52153.72
2022-09-21T02:28:10.917Z,52125.99
2022-09-21T02:30:43.370Z,52125.19
2022-09-21T02:33:18.103Z,52134.43
2022-09-21T02:35:52.382Z,52134.84
2022-09-21T02:38:27.260Z,52148.50
2022-09-21T02:41:00.634Z,52133.23
2022-09-21T02:43:34.653Z,52152.52
2022-09-21T02:46:08.147Z,52140.86
2022-09-21T02:48:42.667Z,52140.87
2022-09-21T02:51:16.331Z,52153.32
2022-09-21T02:53:48.015Z,52154.53
2022-09-21T02:56:19.852Z,52161.36
2022-09-21T02:58:51.422Z,52157.74
2022-09-21T03:01:23.458Z,52156.13
2022-09-21T03:03:53.335Z,52160.15
2022-09-21T03:06:25.192Z,52158.95
2022-09-21T03:08:57.821Z,52159.75
2022-09-21T03:11:30.183Z,52137.65
2022-09-21T03:14:02.863Z,52165.38
2022-09-21T03:16:34.512Z,52134.84
2022-09-21T03:19:06.302Z,52156.54
2022-09-21T03:21:41.210Z,52152.52
2022-09-21T03:24:36.111Z,52156.54
2022-09-21T03:27:09.210Z,52152.11
2022-09-21T03:29:40.757Z,52156.54
2022-09-21T03:32:11.055Z,52150.11
2022-09-21T03:34:42.934Z,52142.47
2022-09-21T03:37:14.813Z,52154.13
2022-09-21T03:39:47.819Z,52161.76
2022-09-21T03:42:19.488Z,52143.27
2022-09-21T03:44:51.441Z,52148.10
2022-09-21T03:47:23.392Z,52148.10
2022-09-21T03:49:54.976Z,52146.09
2022-09-21T03:52:27.059Z,52144.08
2022-09-21T03:54:56.899Z,52159.35
2022-09-21T03:57:28.640Z,52150.51
2022-09-21T04:00:00.204Z,52144.48
2022-09-21T04:02:30.270Z,52142.07
2022-09-21T04:05:02.316Z,52144.07
2022-09-21T04:07:35.989Z,52161.76
2022-09-21T04:10:08.997Z,52143.68
2022-09-21T04:12:41.465Z,52162.16
2022-09-21T04:15:14.460Z,52143.68
2022-09-21T04:17:46.342Z,52148.50
2022-09-21T04:20:16.088Z,52140.86
2022-09-21T04:22:47.887Z,52146.89
2022-09-21T04:25:17.589Z,52152.52
2022-09-21T04:27:48.943Z,52159.35
2022-09-21T04:30:20.851Z,52139.26
2022-09-21T04:32:50.744Z,52152.11
2022-09-21T04:35:23.048Z,52150.11
2022-09-21T04:37:57.746Z,52151.31
2022-09-21T04:40:29.701Z,52158.14
2022-09-21T04:42:59.511Z,52142.87
2022-09-21T04:45:32.787Z,52144.88
2022-09-21T04:48:04.884Z,52145.69
2022-09-21T04:50:36.681Z,52158.95
2022-09-21T04:53:08.124Z,52153.32
2022-09-21T04:55:39.510Z,52140.86
2022-09-21T04:58:10.969Z,52143.68
2022-09-21T05:00:42.488Z,52144.48
2022-09-21T05:03:14.076Z,52143.28
2022-09-21T05:05:50.798Z,52145.69
2022-09-21T05:08:43.016Z,52149.71
2022-09-21T05:11:16.004Z,52136.45
2022-09-21T05:13:47.782Z,52134.03
2022-09-21T05:16:17.643Z,52118.76
2022-09-21T05:18:49.079Z,52130.82
2022-09-21T05:21:20.614Z,52137.65
2022-09-21T05:23:51.989Z,52129.21
2022-09-21T05:26:23.949Z,52111.13
2022-09-21T05:28:54.504Z,52134.43
2022-09-21T05:31:33.603Z,52126.40
2022-09-21T05:34:23.013Z,52118.36
2022-09-21T05:36:58.427Z,52115.55
2022-09-21T05:39:31.152Z,52125.59
2022-09-21T05:42:03.922Z,52121.17
2022-09-21T05:44:36.583Z,52118.36
2022-09-21T05:47:13.194Z,52119.57
2022-09-21T05:49:50.711Z,52121.98
2022-09-21T05:52:24.349Z,52102.69
2022-09-21T05:55:04.487Z,52111.13
2022-09-21T05:57:42.758Z,52098.27
2022-09-21T06:00:18.816Z,52101.48
2022-09-21T06:02:59.282Z,52103.89
2022-09-21T06:05:31.643Z,52090.23
2022-09-21T06:08:06.249Z,52101.48
2022-09-21T06:10:37.786Z,52087.02
2022-09-21T06:13:09.197Z,52074.96
2022-09-21T06:15:40.660Z,52080.59
2022-09-21T06:18:17.542Z,52091.44
2022-09-21T06:20:49.891Z,52103.09
2022-09-21T06:23:21.241Z,52080.18
2022-09-21T06:25:58.552Z,52077.77
2022-09-21T06:28:30.506Z,52073.76
2022-09-21T06:31:03.015Z,52066.92
2022-09-21T06:33:37.869Z,52073.35
2022-09-21T06:36:09.553Z,52073.35
2022-09-21T06:38:40.971Z,52072.15
2022-09-21T06:41:10.984Z,52066.52
2022-09-21T06:43:42.546Z,52073.35
2022-09-21T06:46:14.554Z,52075.36
2022-09-21T06:48:46.348Z,52072.15
2022-09-21T06:51:16.334Z,52071.34
2022-09-21T06:53:47.887Z,52062.91
2022-09-21T06:56:19.712Z,52058.89
2022-09-21T06:58:51.116Z,52054.46
2022-09-21T07:01:23.569Z,52044.02
2022-09-21T07:03:55.491Z,52065.71
2022-09-21T07:06:27.005Z,52051.25
2022-09-21T07:11:50.582Z,52031.56
2022-09-21T07:14:22.933Z,52044.02
2022-09-21T07:16:54.471Z,52054.06
2022-09-21T07:19:26.163Z,52039.20
2022-09-21T07:21:58.087Z,52032.77
2022-09-21T07:24:29.516Z,52056.07
2022-09-21T07:27:00.967Z,52032.37
2022-09-21T07:29:32.537Z,52029.15
2022-09-21T07:32:06.027Z,52027.95
2022-09-21T07:34:39.341Z,52025.93
2022-09-21T07:37:11.094Z,52048.04
2022-09-21T07:39:41.025Z,52039.20
2022-09-21T07:42:12.486Z,52032.37
2022-09-21T07:44:43.914Z,52031.96
2022-09-21T07:47:15.442Z,52042.81
2022-09-21T07:49:47.450Z,52025.94
2022-09-21T07:52:19.744Z,52048.84
2022-09-21T07:54:51.102Z,52029.55
2022-09-21T07:57:40.283Z,52022.72
2022-09-21T08:00:14.002Z,52044.42
2022-09-21T08:02:47.843Z,52037.19
2022-09-21T08:05:19.884Z,52037.19
2022-09-21T08:07:53.565Z,52007.86
2022-09-21T08:10:25.541Z,52020.31
2022-09-21T08:12:57.422Z,52027.94
2022-09-21T08:15:47.473Z,52034.38
2022-09-21T08:18:19.000Z,52044.82
2022-09-21T08:20:57.433Z,52042.01
2022-09-21T08:23:29.275Z,52034.38
2022-09-21T08:26:03.035Z,52037.19
2022-09-21T08:28:34.751Z,52007.86
2022-09-21T08:31:04.643Z,52031.16
2022-09-21T08:33:36.366Z,52013.48
2022-09-21T08:36:08.538Z,52004.64
2022-09-21T08:38:40.657Z,51992.59
2022-09-21T08:41:20.378Z,51983.34
2022-09-21T08:43:53.695Z,51970.48
2022-09-21T08:46:26.252Z,51965.66
2022-09-21T08:49:00.030Z,51958.43
2022-09-21T08:51:33.068Z,51961.24
2022-09-21T08:54:08.966Z,51939.54
2022-09-21T08:57:01.015Z,51944.36
2022-09-21T08:59:32.470Z,51948.78
2022-09-21T09:02:09.414Z,51957.63
2022-09-21T09:04:50.870Z,51949.59
2022-09-21T09:07:33.444Z,51942.76
2022-09-21T09:10:21.779Z,51927.09
2022-09-21T09:12:58.265Z,51920.25
2022-09-21T09:15:53.994Z,51922.66
2022-09-21T09:18:27.977Z,51915.83
2022-09-21T09:21:01.634Z,51908.60
2022-09-21T09:23:36.114Z,51905.79
2022-09-21T09:26:10.175Z,51905.39
2022-09-21T09:28:43.105Z,51912.21
2022-09-21T09:31:18.395Z,51911.01
2022-09-21T09:33:53.124Z,51913.42
2022-09-21T09:36:46.487Z,51903.38
2022-09-21T09:39:17.845Z,51918.64
2022-09-21T09:42:00.964Z,51932.31
2022-09-21T09:44:40.300Z,51907.79
2022-09-21T09:47:17.693Z,51927.48
2022-09-21T09:49:55.221Z,51933.51
2022-09-21T09:52:27.136Z,51933.11
2022-09-21T09:54:58.869Z,51921.86
2022-09-21T09:57:32.518Z,51919.04
2022-09-21T10:00:09.727Z,51920.25
2022-09-21T10:02:50.950Z,51902.17
2022-09-21T10:05:27.373Z,51901.37
2022-09-21T10:07:59.214Z,51901.77
2022-09-21T10:10:36.377Z,51879.67
2022-09-21T10:13:21.534Z,51869.23
2022-09-21T10:15:54.619Z,51872.04
2022-09-21T10:18:27.943Z,51876.05
2022-09-21T10:21:01.852Z,51866.81
2022-09-21T10:23:34.811Z,51885.70
2022-09-21T10:26:08.934Z,51880.47
2022-09-21T10:28:40.532Z,51893.73
2022-09-21T10:31:24.056Z,51884.89
2022-09-21T10:34:06.762Z,51892.13
2022-09-21T10:36:39.485Z,51930.70
2022-09-21T10:39:31.441Z,51925.88
2022-09-21T10:42:05.586Z,51935.12
2022-09-21T10:44:42.953Z,51927.89
2022-09-21T10:47:23.412Z,51915.43
2022-09-21T10:49:55.910Z,51927.88
2022-09-21T10:52:33.565Z,51933.91
2022-09-21T10:55:05.884Z,51922.26
2022-09-21T10:57:37.871Z,51945.97
2022-09-21T11:00:20.535Z,51940.34
2022-09-21T11:02:52.343Z,51937.93
2022-09-21T11:05:25.551Z,51943.96
2022-09-21T11:07:58.780Z,51940.74
2022-09-21T11:10:34.728Z,51913.82
2022-09-21T11:13:18.322Z,51932.30
2022-09-21T11:15:53.386Z,51936.73
2022-09-21T11:18:27.418Z,51919.45
2022-09-21T11:21:00.455Z,51940.34
2022-09-21T11:23:44.006Z,51926.28
2022-09-21T11:26:18.960Z,51934.32
2022-09-21T11:28:52.323Z,51913.02
2022-09-21T11:31:42.861Z,51904.18
2022-09-21T11:34:27.256Z,51906.19
2022-09-21T11:37:10.634Z,51896.95
2022-09-21T11:39:51.989Z,51885.70
2022-09-21T11:42:36.174Z,51899.76
2022-09-21T11:45:10.355Z,51905.79
2022-09-21T11:47:51.688Z,51872.04
2022-09-21T11:50:38.634Z,51866.01
2022-09-21T11:53:24.171Z,51894.54
2022-09-21T11:56:18.218Z,51875.65
2022-09-21T11:58:53.239Z,51872.84
2022-09-21T12:01:37.656Z,51864.40
2022-09-21T12:04:35.068Z,51862.39
2022-09-21T12:07:14.125Z,51851.54
2022-09-21T12:10:12.408Z,51865.20
2022-09-21T12:12:47.640Z,51869.22
2022-09-21T12:15:23.134Z,51879.27
2022-09-21T12:17:58.465Z,51884.49
2022-09-21T12:20:33.751Z,51881.68
2022-09-21T12:23:09.121Z,51860.38
2022-09-21T12:25:42.351Z,51867.62
2022-09-21T12:28:18.980Z,51876.05
2022-09-21T12:30:58.485Z,51878.06
2022-09-21T12:33:36.152Z,51902.98
2022-09-21T12:36:10.616Z,51897.75
2022-09-21T12:38:46.161Z,51898.15
2022-09-21T12:41:19.791Z,51898.55
2022-09-21T12:43:52.700Z,51904.58
2022-09-21T12:46:25.437Z,51900.96
2022-09-21T12:48:56.932Z,51902.17
2022-09-21T12:51:30.482Z,51901.77
2022-09-21T12:54:16.644Z,51871.23
2022-09-21T12:56:51.758Z,51872.03
2022-09-21T12:59:35.036Z,51860.78
2022-09-21T13:02:14.824Z,51873.24
2022-09-21T13:04:53.593Z,51862.79
2022-09-21T13:07:34.379Z,51868.02
2022-09-21T13:10:14.504Z,51847.92
2022-09-21T13:12:46.823Z,51852.34
2022-09-21T13:15:22.333Z,51848.32
2022-09-21T13:18:02.199Z,51871.23
2022-09-21T13:20:39.821Z,51835.87
2022-09-21T13:23:17.719Z,51870.83
2022-09-21T13:26:00.282Z,51833.46
2022-09-21T13:28:57.810Z,51844.31
2022-09-21T13:31:45.154Z,51864.00
2022-09-21T13:34:28.576Z,51854.76
2022-09-21T13:37:29.629Z,51872.03
2022-09-21T13:40:42.625Z,51875.65
2022-09-21T13:43:58.668Z,51876.45
2022-09-21T13:46:58.193Z,51845.92
2022-09-21T13:49:40.470Z,51851.95
2022-09-21T13:52:26.597Z,51865.20
2022-09-21T13:54:59.984Z,51867.21
2022-09-21T13:57:34.556Z,51868.02
2022-09-21T14:00:33.196Z,51868.02
2022-09-21T14:03:06.329Z,51885.70
2022-09-21T14:05:40.976Z,51875.65
2022-09-21T14:08:31.541Z,51837.48
2022-09-21T14:11:03.897Z,51841.09
2022-09-21T14:13:38.297Z,51872.43
2022-09-21T14:16:45.940Z,51839.89
2022-09-21T14:20:03.670Z,51814.17
2022-09-21T14:22:42.914Z,51829.04
2022-09-21T14:25:29.469Z,51821.40
2022-09-21T14:28:06.522Z,51840.29
2022-09-21T14:30:38.319Z,51826.63
2022-09-21T14:33:27.036Z,51817.79
2022-09-21T14:35:58.504Z,51828.24
2022-09-21T14:38:30.532Z,51831.45
2022-09-21T14:41:03.141Z,51828.23
2022-09-21T14:43:36.264Z,51857.57
2022-09-21T14:46:22.171Z,51851.54
2022-09-21T14:49:00.105Z,51868.42
2022-09-21T14:51:36.753Z,51864.80
2022-09-21T14:54:31.636Z,51896.14
2022-09-21T14:57:30.706Z,51898.55
2022-09-21T15:00:15.097Z,51894.94
2022-09-21T15:02:47.882Z,51904.18
2022-09-21T15:05:30.512Z,51941.55
2022-09-21T15:08:29.825Z,51937.93
2022-09-21T15:11:05.287Z,51943.16
2022-09-21T15:13:49.005Z,51931.10
2022-09-21T15:16:39.965Z,51945.97
2022-09-21T15:19:27.307Z,51958.43
2022-09-21T15:22:13.358Z,51958.83
2022-09-21T15:24:51.962Z,51963.25
2022-09-21T15:27:25.576Z,51959.63
2022-09-21T15:29:57.330Z,51981.74
2022-09-21T15:32:35.356Z,51971.69
2022-09-21T15:35:08.893Z,51979.32
2022-09-21T15:37:41.131Z,51989.37
2022-09-21T15:40:19.015Z,51981.73
2022-09-21T15:43:04.768Z,51989.77
2022-09-21T15:45:39.654Z,51982.13
2022-09-21T15:48:13.053Z,51974.50
2022-09-21T15:50:45.202Z,51991.38
2022-09-21T15:53:22.153Z,51985.75
2022-09-21T15:55:54.241Z,51986.15
2022-09-21T15:58:37.489Z,51977.31
2022-09-21T16:01:13.143Z,51977.72
2022-09-21T16:03:44.818Z,51994.59
2022-09-21T16:06:29.427Z,51996.61
2022-09-21T16:09:00.975Z,51986.15
2022-09-21T16:11:38.701Z,51999.81
2022-09-21T16:14:30.630Z,51999.82
2022-09-21T16:17:08.611Z,52006.65
2022-09-21T16:20:04.468Z,52001.42
2022-09-21T16:22:41.300Z,52013.07
2022-09-21T16:25:27.736Z,51999.81
2022-09-21T16:28:00.822Z,52016.29
2022-09-21T16:30:47.768Z,52012.68
2022-09-21T16:33:40.185Z,51999.82
2022-09-21T16:36:47.278Z,52026.34
2022-09-21T16:39:19.609Z,52009.46
2022-09-21T16:41:56.574Z,52016.29
2022-09-21T16:44:31.111Z,52019.11
2022-09-21T16:47:03.599Z,52026.74
2022-09-21T16:49:36.448Z,52018.70
2022-09-21T16:52:08.377Z,52008.66
2022-09-21T16:54:39.861Z,52029.96
2022-09-21T16:57:14.717Z,52005.45
2022-09-21T16:59:46.772Z,52018.30
2022-09-21T17:02:18.372Z,52022.72
2022-09-21T17:04:49.851Z,52032.37
2022-09-21T17:07:21.363Z,52011.87
2022-09-21T17:09:52.889Z,52027.54
2022-09-21T17:12:25.478Z,52028.35
2022-09-21T17:14:57.048Z,52017.09
2022-09-21T17:17:28.552Z,52024.73
2022-09-21T17:20:00.143Z,52009.86
2022-09-21T17:22:32.580Z,52033.17
2022-09-21T17:25:04.459Z,52024.73
2022-09-21T17:27:35.887Z,52039.60
2022-09-21T17:30:10.752Z,52043.21
2022-09-21T17:32:42.992Z,52033.17
2022-09-21T17:35:19.064Z,52027.95
2022-09-21T17:37:50.555Z,52032.37
2022-09-21T17:40:25.031Z,52029.15
2022-09-21T17:42:57.875Z,52051.25
2022-09-21T17:45:36.268Z,52040.00
2022-09-21T17:48:09.300Z,52043.62
2022-09-21T17:50:41.967Z,52050.04
2022-09-21T17:53:38.755Z,52048.84
2022-09-21T17:56:27.522Z,52047.63
2022-09-21T17:59:02.148Z,52055.27
2022-09-21T18:01:36.305Z,52046.83
2022-09-21T18:04:09.541Z,52051.65
2022-09-21T18:06:43.302Z,52055.27
2022-09-21T18:09:16.859Z,52044.82
2022-09-21T18:11:56.561Z,52044.42
2022-09-21T18:14:36.111Z,52054.47
2022-09-21T18:17:20.185Z,52039.60
2022-09-21T18:20:12.891Z,52045.63
2022-09-21T18:22:50.111Z,52044.82
2022-09-21T18:25:28.193Z,52063.31
2022-09-21T18:28:01.815Z,52051.25
2022-09-21T18:30:38.139Z,52056.88
2022-09-21T18:33:21.724Z,52050.45
2022-09-21T18:36:05.014Z,52063.30
2022-09-21T18:38:40.640Z,52052.05
2022-09-21T18:41:21.878Z,52084.60
2022-09-21T18:44:05.689Z,52056.88
2022-09-21T18:46:41.267Z,52058.89
2022-09-21T18:49:17.715Z,52074.96
2022-09-21T18:51:51.210Z,52070.95
2022-09-21T18:54:23.781Z,52070.54
2022-09-21T18:56:56.318Z,52066.12
2022-09-21T18:59:31.831Z,52065.32
2022-09-21T19:02:05.797Z,52064.91
2022-09-21T19:04:38.510Z,52073.75
2022-09-21T19:07:15.256Z,52088.62
2022-09-21T19:09:52.666Z,52082.99
2022-09-21T19:12:29.684Z,52071.74
2022-09-21T19:15:11.578Z,52076.17
2022-09-21T19:17:59.204Z,52066.12
2022-09-21T19:20:42.118Z,52077.77
2022-09-21T19:23:21.984Z,52082.60
2022-09-21T19:25:54.956Z,52076.96
2022-09-21T19:28:36.706Z,52090.23
2022-09-21T19:31:11.898Z,52065.32
2022-09-21T19:33:50.490Z,52080.99
2022-09-21T19:36:24.417Z,52071.34
2022-09-21T19:38:57.111Z,52083.80
2022-09-21T19:41:38.256Z,52085.01
2022-09-21T19:44:17.834Z,52081.39
2022-09-21T19:46:55.081Z,52065.72
2022-09-21T19:49:27.923Z,52072.95
2022-09-21T19:51:59.396Z,52072.15
2022-09-21T19:54:49.448Z,52078.57
2022-09-21T19:57:40.133Z,52072.95
2022-09-21T20:00:16.034Z,52080.59
2022-09-21T20:02:53.658Z,52071.74
2022-09-21T20:05:32.929Z,52103.89
2022-09-21T20:08:06.752Z,52068.53
2022-09-21T20:10:45.202Z,52082.60
2022-09-21T20:13:22.033Z,52099.47
2022-09-21T20:15:57.481Z,52089.83
2022-09-21T20:18:33.085Z,52079.79
2022-09-21T20:21:05.780Z,52083.80
2022-09-21T20:23:39.140Z,52097.06
2022-09-21T20:26:18.355Z,52089.02
2022-09-21T20:28:52.435Z,52083.40
2022-09-21T20:31:24.871Z,52089.43
2022-09-21T20:33:56.309Z,52067.73
2022-09-21T20:36:27.781Z,52074.96
2022-09-21T20:39:00.226Z,52080.18
2022-09-21T20:41:31.582Z,52087.42
2022-09-21T20:44:03.234Z,52092.24
2022-09-21T20:46:35.360Z,52103.09
2022-09-21T20:49:08.855Z,52101.88
2022-09-21T20:51:40.249Z,52103.49
2022-09-21T20:54:11.991Z,52115.54
2022-09-21T20:56:43.701Z,52101.48
2022-09-21T20:59:15.538Z,52101.88
2022-09-21T21:01:47.136Z,52110.32
2022-09-21T21:04:18.721Z,52115.15
2022-09-21T21:06:50.788Z,52111.52
2022-09-21T21:09:22.299Z,52107.11
2022-09-21T21:11:53.896Z,52104.29
2022-09-21T21:14:26.305Z,52114.34
2022-09-21T21:16:58.180Z,52108.71
2022-09-21T21:19:29.697Z,52099.88
2022-09-21T21:22:01.440Z,52111.13
2022-09-21T21:24:44.235Z,52109.92
2022-09-21T21:27:17.398Z,52115.95
2022-09-21T21:29:50.327Z,52100.68
2022-09-21T21:32:23.350Z,52102.29
2022-09-21T21:34:54.900Z,52104.70
2022-09-21T21:37:27.114Z,52109.11
2022-09-21T21:39:58.754Z,52117.15
2022-09-21T21:42:30.410Z,52105.90
2022-09-21T21:45:01.963Z,52118.76
2022-09-21T21:47:41.328Z,52117.16
2022-09-21T21:50:13.217Z,52112.33
2022-09-21T21:52:45.404Z,52105.50
2022-09-21T21:55:17.220Z,52112.33
2022-09-21T21:57:48.781Z,52117.15
2022-09-21T22:00:20.379Z,52119.96
2022-09-21T22:02:51.787Z,52105.50
2022-09-21T22:05:23.220Z,52114.74
2022-09-21T22:07:54.762Z,52107.91
2022-09-21T22:10:26.437Z,52119.97
2022-09-21T22:12:58.464Z,52118.76
2022-09-21T22:15:30.957Z,52099.48
2022-09-21T22:18:02.400Z,52105.50
2022-09-21T22:20:33.900Z,52133.63
2022-09-21T22:23:05.648Z,52115.15
2022-09-21T22:25:35.414Z,52105.10
2022-09-21T22:28:07.081Z,52105.90
2022-09-21T22:30:39.419Z,52113.14
2022-09-21T22:33:10.911Z,52105.90
2022-09-21T22:35:42.395Z,52123.18
2022-09-21T22:38:13.841Z,52105.10
2022-09-21T22:40:43.928Z,52110.32
2022-09-21T22:43:15.416Z,52109.52
2022-09-21T22:45:46.887Z,52105.90
2022-09-21T22:48:18.374Z,52118.76
2022-09-21T22:50:49.775Z,52132.83
2022-09-21T22:53:21.559Z,52119.97
2022-09-21T22:56:03.768Z,52126.80
2022-09-21T22:58:35.883Z,52141.67
2022-09-21T23:01:08.900Z,52140.86
2022-09-21T23:03:41.364Z,52128.80
2022-09-21T23:06:14.791Z,52144.08
2022-09-21T23:08:49.157Z,52127.60
2022-09-21T23:11:22.992Z,52120.77
2022-09-21T23:13:54.431Z,52130.82
2022-09-21T23:16:25.998Z,52128.81
2022-09-21T23:18:58.031Z,52126.40
2022-09-21T23:21:30.093Z,52123.18
2022-09-21T23:24:02.459Z,52125.59
2022-09-21T23:26:35.208Z,52140.86
2022-09-21T23:29:09.078Z,52128.40
2022-09-21T23:31:44.770Z,52132.83
2022-09-21T23:34:17.210Z,52130.01
2022-09-21T23:36:48.630Z,52130.41
2022-09-21T23:39:20.003Z,52123.99
2022-09-21T23:41:51.817Z,52120.37
2022-09-21T23:44:21.805Z,52131.62
2022-09-21T23:46:53.151Z,52134.84
2022-09-21T23:49:24.589Z,52118.76
2022-09-21T23:51:55.969Z,52131.22
2022-09-21T23:54:27.473Z,52138.05
2022-09-21T23:56:58.862Z,52125.59
2022-09-21T23:59:30.296Z,52116.76
